Terminal Aerodrome Forecast
Issued by NWS

Home | Current Version | Previous Version | Text Only | Print | Product List | Glossary On
Versions: 1 2 3 4 5 6 7 8 9 10 11 12 13 14 15 16 17 18
000
FTUS45 KCYS 141720
TAFLAR
TAF
KLAR 141720Z 1418/1518 33017G26KT P6SM VCSH BKN050 BKN100
      TEMPO 1418/1419 2SM -SHSN BKN030
     FM142300 33008KT P6SM SCT200
     FM151100 24015G25KT P6SM SCT250=

USA.gov is the U.S. government's official web portal to all federal, state and local government web resources and services.